Time;durP1;ratioP1;P1;durP2;ratioP2;P2;SDS_P1;SDS_P2;PMS_P1;PMS_P2;Temp;Humidity;BMP_temperature;BMP_pressure;BME280_temperature;BME280_humidity;BME280_pressure;Samples;Min_cycle;Max_cycle;Signal;HPM_P1;HPM_P2
2023/05/19 00:01:42;;;;;;;8.35;4.60;;;;;;;7.38;100.00;99423.50;4182936;28;20523;-72
2023/05/19 00:03:56;;;;;;;5.55;3.90;;;;;;;7.33;100.00;99421.72;4188289;28;20488;-72
2023/05/19 00:05:57;;;;;;;5.78;4.13;;;;;;;7.30;100.00;99419.66;4189424;28;20041;-72
2023/05/19 00:08:00;;;;;;;8.45;4.32;;;;;;;7.28;100.00;99424.69;4185101;28;20040;-72
2023/05/19 00:10:00;;;;;;;6.90;4.53;;;;;;;7.26;100.00;99417.88;4187151;28;20076;-72
2023/05/19 00:12:01;;;;;;;5.45;3.65;;;;;;;7.27;100.00;99414.78;4189580;28;20127;-72
2023/05/19 00:14:03;;;;;;;5.55;3.50;;;;;;;7.23;100.00;99419.38;4186421;28;20051;-72
2023/05/19 00:16:04;;;;;;;4.57;3.65;;;;;;;7.16;100.00;99412.75;4185029;28;20051;-72
2023/05/19 00:18:07;;;;;;;5.22;3.53;;;;;;;7.11;100.00;99415.69;4189916;28;20479;-72
2023/05/19 00:20:08;;;;;;;7.07;3.80;;;;;;;7.02;100.00;99416.53;4187032;28;20093;-72
2023/05/19 00:22:08;;;;;;;4.80;3.72;;;;;;;6.98;100.00;99410.09;4182486;28;20327;-72
2023/05/19 00:24:08;;;;;;;4.65;3.08;;;;;;;6.92;100.00;99397.66;4179510;28;20048;-72
2023/05/19 00:26:09;;;;;;;4.47;3.30;;;;;;;6.87;100.00;99406.13;4177694;28;20024;-72
2023/05/19 00:28:10;;;;;;;5.78;3.88;;;;;;;6.82;100.00;99406.31;4180700;28;21216;-72
2023/05/19 00:30:10;;;;;;;4.60;3.42;;;;;;;6.81;100.00;99409.38;4181939;28;20035;-72
2023/05/19 00:32:11;;;;;;;6.32;3.88;;;;;;;6.82;100.00;99408.25;4181601;28;20148;-72
2023/05/19 00:34:11;;;;;;;5.18;3.40;;;;;;;6.76;100.00;99407.63;4188781;28;20056;-72
2023/05/19 00:36:11;;;;;;;5.82;3.25;;;;;;;6.75;100.00;99400.50;4184655;28;20103;-72
2023/05/19 00:38:12;;;;;;;3.60;3.20;;;;;;;6.73;100.00;99400.84;4178617;28;20033;-72
2023/05/19 00:40:12;;;;;;;6.25;3.20;;;;;;;6.73;100.00;99403.59;4178425;28;20079;-72
2023/05/19 00:42:13;;;;;;;4.90;3.53;;;;;;;6.76;100.00;99407.63;4178939;28;20392;-72
2023/05/19 00:44:13;;;;;;;4.72;3.60;;;;;;;6.76;100.00;99405.66;4178589;28;20703;-72
2023/05/19 00:46:14;;;;;;;6.68;3.80;;;;;;;6.73;100.00;99403.59;4178990;28;20040;-72
2023/05/19 00:48:14;;;;;;;5.28;3.35;;;;;;;6.73;100.00;99405.53;4179008;28;20342;-72
2023/05/19 00:50:14;;;;;;;5.32;3.55;;;;;;;6.72;100.00;99404.72;4180132;28;20028;-72
2023/05/19 00:52:15;;;;;;;6.47;3.47;;;;;;;6.73;100.00;99402.78;4175734;28;20124;-72
2023/05/19 00:54:15;;;;;;;7.50;4.03;;;;;;;6.77;100.00;99398.22;4176836;28;20060;-72
2023/05/19 00:56:17;;;;;;;5.65;4.60;;;;;;;6.75;100.00;99406.81;4178357;28;20045;-72
2023/05/19 00:58:18;;;;;;;7.63;4.73;;;;;;;6.75;100.00;99404.06;4177679;28;20028;-73
2023/05/19 01:00:19;;;;;;;7.20;3.53;;;;;;;6.75;100.00;99400.50;4178575;28;20119;-72
2023/05/19 01:02:20;;;;;;;10.00;4.43;;;;;;;6.76;100.00;99402.13;4177586;28;20028;-72
2023/05/19 01:04:21;;;;;;;8.20;4.72;;;;;;;6.77;100.00;99403.72;4178034;28;20499;-72
2023/05/19 01:06:21;;;;;;;13.25;4.82;;;;;;;6.79;100.00;99393.22;4176936;28;20493;-72
2023/05/19 01:08:22;;;;;;;5.72;3.95;;;;;;;6.82;100.00;99402.75;4182319;28;20049;-72
2023/05/19 01:10:22;;;;;;;6.28;3.85;;;;;;;6.79;100.00;99395.97;4178026;28;20504;-72
2023/05/19 01:12:23;;;;;;;7.15;4.70;;;;;;;6.75;100.00;99401.31;4182725;28;20295;-72
2023/05/19 01:14:24;;;;;;;4.72;3.72;;;;;;;6.70;100.00;99395.19;4176033;28;20075;-72
2023/05/19 01:16:36;;;;;;;6.22;4.15;;;;;;;6.66;100.00;99400.53;4179233;28;20044;-72
2023/05/19 01:18:48;;;;;;;9.52;4.07;;;;;;;6.63;100.00;99401.22;4176046;28;20427;-72
2023/05/19 01:20:56;;;;;;;7.95;4.53;;;;;;;6.58;100.00;99400.56;4180410;28;20107;-72
2023/05/19 01:23:16;;;;;;;7.20;3.70;;;;;;;6.60;100.00;99393.59;4186562;28;20072;-72
2023/05/19 01:25:35;;;;;;;6.63;4.57;;;;;;;6.58;100.00;99393.13;4180901;28;20060;-72
2023/05/19 01:28:05;;;;;;;5.60;4.15;;;;;;;6.54;100.00;99392.19;4179236;28;20319;-72
2023/05/19 01:30:15;;;;;;;6.15;3.80;;;;;;;6.59;100.00;99394.75;4177768;28;20057;-73
2023/05/19 01:32:19;;;;;;;9.80;4.22;;;;;;;6.61;100.00;99392.47;4183809;28;20033;-72
2023/05/19 01:34:22;;;;;;;6.47;4.07;;;;;;;6.60;100.00;99390.03;4178196;28;20024;-72
2023/05/19 01:36:25;;;;;;;7.32;4.25;;;;;;;6.57;100.00;99388.78;4180044;28;20264;-72
2023/05/19 01:38:28;;;;;;;8.60;4.40;;;;;;;6.47;100.00;99389.94;4178865;28;20032;-72
2023/05/19 01:40:29;;;;;;;10.95;4.57;;;;;;;6.45;100.00;99396.88;4179949;28;20043;-72
2023/05/19 01:42:36;;;;;;;5.38;3.90;;;;;;;6.40;100.00;99402.56;4181804;28;20041;-72
2023/05/19 01:44:36;;;;;;;7.97;3.22;;;;;;;6.39;100.00;99399.03;4179541;28;20420;-72
2023/05/19 01:46:37;;;;;;;8.13;3.85;;;;;;;6.36;100.00;99393.34;4182821;28;20045;-72
2023/05/19 01:48:38;;;;;;;13.80;4.65;;;;;;;6.38;100.00;99389.16;4182110;28;20043;-72
2023/05/19 01:50:39;;;;;;;6.57;3.47;;;;;;;6.35;100.00;99398.06;4183696;28;20485;-72
2023/05/19 01:52:40;;;;;;;6.40;4.15;;;;;;;6.30;100.00;99400.19;4178700;28;20045;-72
2023/05/19 01:54:40;;;;;;;4.80;3.50;;;;;;;6.23;100.00;99408.94;4183406;28;20044;-72
2023/05/19 01:56:52;;;;;;;5.07;4.10;;;;;;;6.16;100.00;99401.19;4181311;28;20029;-72
2023/05/19 01:59:00;;;;;;;6.45;3.65;;;;;;;6.17;100.00;99402.78;4179121;28;20045;-72
2023/05/19 02:01:15;;;;;;;7.70;3.40;;;;;;;6.21;100.00;99394.72;4180159;28;20051;-72
2023/05/19 02:03:21;;;;;;;6.63;4.38;;;;;;;6.18;100.00;99390.66;4179814;28;20041;-72
2023/05/19 02:05:33;;;;;;;4.40;4.00;;;;;;;6.17;100.00;99391.78;4182062;28;20136;-72
2023/05/19 02:07:43;;;;;;;7.35;3.70;;;;;;;6.18;100.00;99389.84;4180304;28;20062;-72
2023/05/19 02:10:01;;;;;;;6.97;3.92;;;;;;;6.12;100.00;99380.16;4179928;28;20039;-72
2023/05/19 02:12:22;;;;;;;7.10;5.07;;;;;;;6.12;100.00;99397.47;4182377;28;20075;-72
2023/05/19 02:14:31;;;;;;;7.45;4.00;;;;;;;6.11;100.00;99390.34;4182782;28;20037;-72
2023/05/19 02:16:33;;;;;;;8.82;5.07;;;;;;;6.12;100.00;99391.97;4182571;28;20101;-72
2023/05/19 02:18:34;;;;;;;7.93;5.15;;;;;;;6.19;100.00;99375.78;4177317;28;20049;-72
2023/05/19 02:20:34;;;;;;;7.97;4.70;;;;;;;6.23;100.00;99380.63;4181552;28;20381;-72
2023/05/19 02:22:35;;;;;;;5.53;4.20;;;;;;;6.23;100.00;99373.19;4178883;28;20064;-72
2023/05/19 02:24:36;;;;;;;9.23;4.68;;;;;;;6.19;100.00;99378.53;4177584;28;20461;-72
2023/05/19 02:26:37;;;;;;;6.18;4.65;;;;;;;6.16;100.00;99381.13;4182917;28;20049;-72
2023/05/19 02:28:37;;;;;;;8.50;4.72;;;;;;;6.10;100.00;99383.25;4179863;28;20094;-72
2023/05/19 02:30:37;;;;;;;6.10;4.07;;;;;;;6.06;100.00;99368.56;4179011;28;20053;-72
2023/05/19 02:32:38;;;;;;;4.80;3.70;;;;;;;6.04;100.00;99379.06;4176971;28;20052;-72
2023/05/19 02:34:38;;;;;;;8.50;4.50;;;;;;;6.02;100.00;99377.75;4180332;28;20044;-72
2023/05/19 02:36:41;;;;;;;7.38;4.43;;;;;;;6.01;100.00;99371.47;4181137;28;20554;-72
2023/05/19 02:38:42;;;;;;;6.85;4.70;;;;;;;5.99;100.00;99376.47;4182508;28;20393;-72
2023/05/19 02:40:42;;;;;;;7.88;4.40;;;;;;;6.00;100.00;99371.78;4181191;28;20174;-72
2023/05/19 02:42:42;;;;;;;5.97;4.07;;;;;;;6.00;100.00;99374.53;4182344;28;20053;-72
2023/05/19 02:44:43;;;;;;;6.43;4.38;;;;;;;5.90;100.00;99379.25;4182952;28;20041;-72
2023/05/19 02:46:43;;;;;;;6.95;4.20;;;;;;;5.90;100.00;99372.91;4187129;28;20074;-72
2023/05/19 02:48:43;;;;;;;4.95;3.95;;;;;;;5.86;100.00;99372.75;4181524;28;20516;-72
2023/05/19 02:50:43;;;;;;;4.82;4.20;;;;;;;5.84;100.00;99375.00;4184993;28;20047;-72
2023/05/19 02:52:44;;;;;;;6.63;4.40;;;;;;;5.82;100.00;99365.50;4184975;28;20052;-72
2023/05/19 02:54:44;;;;;;;7.53;4.53;;;;;;;5.81;100.00;99370.19;4184251;28;20047;-72
2023/05/19 02:56:44;;;;;;;5.63;4.18;;;;;;;5.82;100.00;99363.53;4186529;28;20051;-72
2023/05/19 02:58:45;;;;;;;23.27;5.00;;;;;;;5.82;100.00;99366.28;4184771;28;20087;-72
2023/05/19 03:00:45;;;;;;;7.25;4.40;;;;;;;5.89;100.00;99363.88;4183130;28;20040;-72
2023/05/19 03:02:45;;;;;;;6.22;4.20;;;;;;;5.95;100.00;99372.75;4185062;28;20040;-72
2023/05/19 03:04:46;;;;;;;9.75;5.40;;;;;;;5.90;100.00;99371.00;4184333;28;20374;-72
2023/05/19 03:06:46;;;;;;;5.82;4.45;;;;;;;5.86;100.00;99374.69;4184999;28;20137;-72
2023/05/19 03:08:46;;;;;;;6.68;4.65;;;;;;;5.78;100.00;99362.56;4184223;28;20041;-72
2023/05/19 03:10:47;;;;;;;5.65;3.70;;;;;;;5.77;100.00;99369.19;4185597;28;20063;-72
2023/05/19 03:12:47;;;;;;;5.53;3.85;;;;;;;5.75;100.00;99370.66;4185591;28;20110;-72
2023/05/19 03:14:47;;;;;;;6.00;4.78;;;;;;;5.71;100.00;99377.91;4181342;28;20540;-72
2023/05/19 03:16:48;;;;;;;8.95;4.60;;;;;;;5.69;100.00;99372.75;4185023;28;20048;-72
2023/05/19 03:18:48;;;;;;;7.55;5.20;;;;;;;5.68;100.00;99378.56;4184263;28;20171;-73
2023/05/19 03:20:49;;;;;;;5.68;4.30;;;;;;;5.65;100.00;99374.53;4182836;28;20600;-73
2023/05/19 03:22:50;;;;;;;6.30;4.60;;;;;;;5.62;100.00;99362.25;4183203;28;20052;-72
2023/05/19 03:24:52;;;;;;;7.82;5.82;;;;;;;5.62;100.00;99359.50;4184591;28;20208;-72
2023/05/19 03:26:52;;;;;;;7.30;4.28;;;;;;;5.61;100.00;99373.56;4180780;28;20445;-72
2023/05/19 03:28:53;;;;;;;7.55;4.75;;;;;;;5.58;100.00;99369.53;4182354;28;20041;-72
2023/05/19 03:30:53;;;;;;;5.35;4.43;;;;;;;5.56;100.00;99369.06;4188176;28;20398;-72
2023/05/19 03:32:53;;;;;;;6.50;4.40;;;;;;;5.61;100.00;99377.13;4182748;28;20041;-73
2023/05/19 03:34:53;;;;;;;10.75;4.90;;;;;;;5.64;100.00;99376.50;4185183;28;20053;-72
2023/05/19 03:36:54;;;;;;;7.25;4.68;;;;;;;5.69;100.00;99363.72;4185861;28;20123;-72
2023/05/19 03:38:54;;;;;;;9.30;5.03;;;;;;;5.70;100.00;99373.56;4185651;28;20041;-72
2023/05/19 03:40:55;;;;;;;5.97;4.47;;;;;;;5.69;100.00;99372.75;4181829;28;20044;-72
2023/05/19 03:42:55;;;;;;;10.85;5.00;;;;;;;5.70;100.00;99377.09;4181245;28;20510;-72
2023/05/19 03:44:55;;;;;;;10.10;5.22;;;;;;;5.72;100.00;99374.88;4184314;28;20036;-72
2023/05/19 03:46:56;;;;;;;6.28;4.55;;;;;;;5.73;100.00;99379.22;4183430;28;20476;-72
2023/05/19 03:48:56;;;;;;;7.78;4.82;;;;;;;5.73;100.00;99373.75;4186572;28;20373;-72
2023/05/19 03:50:56;;;;;;;10.20;4.97;;;;;;;5.73;100.00;99378.41;4184664;28;20150;-72
2023/05/19 03:52:57;;;;;;;5.80;4.55;;;;;;;5.72;100.00;99368.56;4182249;28;20116;-72
2023/05/19 03:54:57;;;;;;;11.35;4.95;;;;;;;5.70;100.00;99370.81;4184096;28;20032;-72
2023/05/19 03:56:58;;;;;;;12.48;5.13;;;;;;;5.64;100.00;99378.44;4182344;28;20059;-72
2023/05/19 03:58:58;;;;;;;6.30;4.53;;;;;;;5.59;100.00;99371.16;4183722;28;20041;-72
2023/05/19 04:00:58;;;;;;;7.82;3.90;;;;;;;5.53;100.00;99377.91;4179966;28;20607;-72
2023/05/19 04:02:59;;;;;;;7.65;5.22;;;;;;;5.47;100.00;99370.19;4180863;28;20489;-72
2023/05/19 04:04:59;;;;;;;6.68;4.70;;;;;;;5.42;100.00;99376.63;4180125;28;20037;-72
2023/05/19 04:07:00;;;;;;;7.80;4.60;;;;;;;5.38;100.00;99378.44;4182956;28;20040;-72
2023/05/19 04:09:01;;;;;;;10.75;5.18;;;;;;;5.38;100.00;99377.59;4181146;28;20057;-72
2023/05/19 04:11:01;;;;;;;8.05;4.50;;;;;;;5.40;100.00;99378.91;4182664;28;20187;-72
2023/05/19 04:13:02;;;;;;;7.75;5.20;;;;;;;5.46;100.00;99376.78;4183500;28;20505;-72
2023/05/19 04:15:02;;;;;;;7.40;4.85;;;;;;;5.40;100.00;99376.16;4184534;28;20123;-73
2023/05/19 04:17:03;;;;;;;6.95;4.50;;;;;;;5.34;100.00;99382.94;4182171;28;20072;-73
2023/05/19 04:19:03;;;;;;;7.63;4.45;;;;;;;5.27;100.00;99383.41;4185551;28;20530;-72
2023/05/19 04:21:04;;;;;;;6.28;4.38;;;;;;;5.24;100.00;99384.03;4185352;28;20140;-72
2023/05/19 04:23:04;;;;;;;4.65;4.00;;;;;;;5.26;100.00;99379.03;4177694;28;20049;-72
2023/05/19 04:25:06;;;;;;;5.30;3.92;;;;;;;5.34;100.00;99382.94;4181811;28;20572;-72
2023/05/19 04:27:10;;;;;;;8.27;4.57;;;;;;;5.44;100.00;99390.03;4184353;28;20472;-72
2023/05/19 04:29:12;;;;;;;8.05;4.65;;;;;;;5.51;100.00;99387.63;4184565;28;20849;-72
2023/05/19 04:31:13;;;;;;;6.60;4.18;;;;;;;5.47;100.00;99384.72;4180525;28;20055;-72
2023/05/19 04:33:13;;;;;;;12.45;5.25;;;;;;;5.43;100.00;99385.69;4182239;28;20368;-72
2023/05/19 04:35:16;;;;;;;8.98;4.22;;;;;;;5.41;100.00;99388.75;4184633;28;20044;-72
2023/05/19 04:37:16;;;;;;;10.70;4.93;;;;;;;5.35;100.00;99379.84;4179427;28;20101;-72
2023/05/19 04:39:17;;;;;;;11.95;5.25;;;;;;;5.33;100.00;99387.59;4182973;28;20098;-72
2023/05/19 04:41:17;;;;;;;5.32;4.80;;;;;;;5.32;100.00;99398.91;4184282;28;20052;-72
2023/05/19 04:43:18;;;;;;;6.68;4.80;;;;;;;5.30;100.00;99388.25;4182486;28;20044;-72
2023/05/19 04:45:19;;;;;;;9.23;4.45;;;;;;;5.31;100.00;99389.06;4179558;28;20060;-72
2023/05/19 04:47:20;;;;;;;8.07;4.53;;;;;;;5.29;100.00;99385.81;4184276;28;20325;-72
2023/05/19 04:49:20;;;;;;;8.27;5.05;;;;;;;5.35;100.00;99387.28;4181483;28;20424;-72
2023/05/19 04:51:20;;;;;;;7.68;4.70;;;;;;;5.41;100.00;99387.94;4179444;28;20048;-72
2023/05/19 04:53:21;;;;;;;7.10;4.75;;;;;;;5.47;100.00;99390.22;4184300;28;20055;-72
2023/05/19 04:55:21;;;;;;;10.13;5.50;;;;;;;5.50;100.00;99389.56;4182844;28;20103;-72
2023/05/19 04:57:22;;;;;;;10.13;5.35;;;;;;;5.51;100.00;99390.38;4183622;28;20106;-72
2023/05/19 04:59:22;;;;;;;9.85;5.57;;;;;;;5.57;100.00;99395.38;4183714;28;20157;-72
2023/05/19 05:01:24;;;;;;;7.18;5.28;;;;;;;5.58;100.00;99386.00;4181418;28;20098;-73
2023/05/19 05:03:25;;;;;;;9.90;5.60;;;;;;;5.60;100.00;99386.47;4185166;28;20072;-72
2023/05/19 05:05:25;;;;;;;7.60;4.85;;;;;;;5.62;100.00;99384.22;4147602;28;20052;-72
2023/05/19 05:07:25;;;;;;;7.63;5.20;;;;;;;5.67;100.00;99390.69;4203123;28;20043;-72
2023/05/19 05:09:26;;;;;;;5.95;4.78;;;;;;;5.75;100.00;99396.19;4183491;28;20043;-72
2023/05/19 05:11:26;;;;;;;7.68;4.50;;;;;;;5.79;100.00;99388.09;4181229;28;20053;-72
2023/05/19 05:13:27;;;;;;;10.40;5.35;;;;;;;5.87;100.00;99388.09;4181923;28;20044;-72
2023/05/19 05:15:28;;;;;;;6.15;4.65;;;;;;;5.98;100.00;99388.59;4183041;28;20064;-72
2023/05/19 05:17:29;;;;;;;9.10;4.78;;;;;;;6.06;100.00;99390.53;4185164;28;20476;-72
2023/05/19 05:19:30;;;;;;;6.88;5.13;;;;;;;6.18;100.00;99393.41;4183320;28;20041;-72
2023/05/19 05:21:30;;;;;;;9.18;5.57;;;;;;;6.27;100.00;99381.59;4181775;28;20076;-72
2023/05/19 05:23:31;;;;;;;7.20;4.90;;;;;;;6.35;100.00;99386.25;4178773;28;20029;-72
2023/05/19 05:25:32;;;;;;;7.28;4.65;;;;;;;6.42;100.00;99392.84;4185472;28;20047;-73
2023/05/19 05:27:32;;;;;;;6.80;4.55;;;;;;;6.52;100.00;99394.44;4181172;28;20044;-72
2023/05/19 05:29:33;;;;;;;5.63;4.70;;;;;;;6.53;100.00;99387.00;4183090;28;20345;-72
2023/05/19 05:31:33;;;;;;;6.00;4.35;;;;;;;6.58;100.00;99386.81;4181434;28;20210;-72
2023/05/19 05:33:33;;;;;;;8.13;5.43;;;;;;;6.61;100.00;99392.47;4182984;28;20044;-72
2023/05/19 05:35:34;;;;;;;7.80;4.93;;;;;;;6.70;100.00;99390.50;4182072;28;20076;-72
2023/05/19 05:37:34;;;;;;;10.85;5.75;;;;;;;6.76;100.00;99389.16;4177637;28;20076;-72
2023/05/19 05:39:34;;;;;;;6.78;4.70;;;;;;;6.87;100.00;99391.53;4183745;28;20048;-72
2023/05/19 05:41:35;;;;;;;7.03;4.80;;;;;;;6.92;100.00;99385.88;4180884;28;20095;-72
2023/05/19 05:43:35;;;;;;;7.60;5.47;;;;;;;7.01;100.00;99392.13;4181461;28;20611;-72
2023/05/19 05:45:36;;;;;;;9.05;5.35;;;;;;;7.10;100.00;99387.38;4180103;28;20051;-72
2023/05/19 05:47:38;;;;;;;5.88;5.28;;;;;;;7.18;100.00;99388.47;4182313;28;20072;-72
2023/05/19 05:49:39;;;;;;;9.45;6.07;;;;;;;7.31;100.00;99390.16;4183989;28;20432;-72
2023/05/19 05:51:39;;;;;;;8.88;4.53;;;;;;;7.40;100.00;99392.88;4183106;28;20068;-72
2023/05/19 05:53:43;;;;;;;5.38;4.80;;;;;;;7.47;100.00;99399.44;4181317;28;20036;-72
2023/05/19 05:55:45;;;;;;;9.65;5.82;;;;;;;7.58;100.00;99392.41;4183399;28;20393;-72
2023/05/19 05:57:47;;;;;;;12.38;5.32;;;;;;;7.70;100.00;99396.38;4179838;28;20127;-72
2023/05/19 05:59:48;;;;;;;8.70;5.03;;;;;;;7.83;100.00;99401.59;4184195;28;20045;-72
2023/05/19 06:01:48;;;;;;;11.52;4.70;;;;;;;7.92;100.00;99397.94;4181546;28;20047;-72
2023/05/19 06:03:48;;;;;;;8.25;4.90;;;;;;;8.06;100.00;99399.28;4178288;28;20041;-72
2023/05/19 06:05:48;;;;;;;6.72;4.30;;;;;;;8.11;100.00;99406.53;4183115;28;20610;-72
2023/05/19 06:07:49;;;;;;;6.80;4.68;;;;;;;8.20;100.00;99404.50;4181422;28;20119;-72
2023/05/19 06:09:49;;;;;;;6.82;4.32;;;;;;;8.33;100.00;99411.66;4178762;28;20060;-72
2023/05/19 06:11:49;;;;;;;8.23;5.13;;;;;;;8.49;100.00;99400.00;4180434;28;20465;-72
2023/05/19 06:13:50;;;;;;;7.45;4.68;;;;;;;8.55;100.00;99401.41;4180786;28;20041;-72
2023/05/19 06:15:51;;;;;;;10.80;7.38;;;;;;;8.65;100.00;99401.75;4181710;28;20129;-72
2023/05/19 06:17:51;;;;;;;8.40;4.35;;;;;;;8.78;100.00;99397.06;4180431;28;20802;-72
2023/05/19 06:19:52;;;;;;;7.82;4.47;;;;;;;8.79;100.00;99403.41;4179187;28;20049;-72
2023/05/19 06:21:52;;;;;;;8.25;4.80;;;;;;;8.87;100.00;99391.44;4183560;28;20073;-72
2023/05/19 06:23:53;;;;;;;10.93;5.53;;;;;;;8.98;100.00;99404.44;4185059;28;20479;-72
2023/05/19 06:25:53;;;;;;;7.65;4.43;;;;;;;9.11;100.00;99396.16;4182718;28;20166;-72
2023/05/19 06:27:53;;;;;;;7.90;4.35;;;;;;;9.16;100.00;99391.19;4186433;28;20060;-72
2023/05/19 06:29:54;;;;;;;9.00;4.95;;;;;;;9.26;100.00;99392.66;4186176;28;20036;-72
2023/05/19 06:31:54;;;;;;;7.30;4.28;;;;;;;9.30;100.00;99390.84;4183615;28;20053;-72
2023/05/19 06:33:55;;;;;;;5.53;4.22;;;;;;;9.37;100.00;99384.72;4185453;28;20028;-72
2023/05/19 06:35:55;;;;;;;9.50;4.75;;;;;;;9.44;100.00;99384.97;4184861;28;20056;-72
2023/05/19 06:37:56;;;;;;;6.50;4.40;;;;;;;9.53;100.00;99399.44;4184893;28;20131;-72
2023/05/19 06:39:56;;;;;;;9.50;4.03;;;;;;;9.61;100.00;99389.41;4179972;28;20033;-72
2023/05/19 06:41:57;;;;;;;9.45;4.15;;;;;;;9.75;100.00;99392.56;4184294;28;20170;-72
2023/05/19 06:43:57;;;;;;;9.40;4.90;;;;;;;9.80;100.00;99390.38;4185345;28;20531;-72
2023/05/19 06:45:57;;;;;;;7.90;4.55;;;;;;;9.79;100.00;99393.50;4184501;28;20068;-72
2023/05/19 06:47:57;;;;;;;8.43;4.13;;;;;;;9.91;100.00;99393.44;4183688;28;20493;-72
2023/05/19 06:49:58;;;;;;;7.60;4.75;;;;;;;10.02;100.00;99393.75;4182040;28;20064;-72
2023/05/19 06:51:58;;;;;;;4.75;4.20;;;;;;;10.16;100.00;99383.06;4182314;28;20064;-72
2023/05/19 06:53:58;;;;;;;8.23;4.30;;;;;;;10.27;100.00;99386.19;4182727;28;20048;-72
2023/05/19 06:55:59;;;;;;;10.75;5.07;;;;;;;10.34;100.00;99386.34;4182520;28;20549;-72
2023/05/19 06:57:59;;;;;;;6.97;4.40;;;;;;;10.39;98.65;99386.09;4182025;28;20454;-72
2023/05/19 06:59:59;;;;;;;9.45;4.57;;;;;;;10.40;96.58;99387.72;4182758;28;20071;-72
2023/05/19 07:02:01;;;;;;;7.32;4.60;;;;;;;10.39;99.50;99388.88;4181602;28;20383;-72
2023/05/19 07:04:01;;;;;;;7.38;4.38;;;;;;;10.43;99.57;99391.75;4181664;28;20135;-72
2023/05/19 07:06:02;;;;;;;5.95;4.45;;;;;;;10.38;98.18;99387.25;4183616;28;20051;-72
2023/05/19 07:08:03;;;;;;;8.85;4.60;;;;;;;10.40;97.92;99380.22;4185902;28;20091;-72
2023/05/19 07:10:04;;;;;;;6.47;4.32;;;;;;;10.46;97.35;99371.66;4180326;28;20028;-72
2023/05/19 07:12:05;;;;;;;8.75;4.22;;;;;;;10.47;97.94;99381.56;4183029;28;20060;-72
2023/05/19 07:14:05;;;;;;;9.10;4.70;;;;;;;10.56;99.21;99382.19;4180837;28;20025;-72
2023/05/19 07:16:05;;;;;;;7.55;5.45;;;;;;;10.63;97.72;99382.38;4181654;28;20028;-72
2023/05/19 07:18:06;;;;;;;16.23;5.07;;;;;;;10.57;96.87;99376.28;4182980;28;20140;-72
2023/05/19 07:20:08;;;;;;;11.00;4.60;;;;;;;10.63;97.18;99379.63;4182092;28;20021;-72
2023/05/19 07:22:09;;;;;;;;;;;;;;;10.74;98.42;99377.09;4181404;28;20431;-72
2023/05/19 07:24:09;;;;;;;9.15;4.60;;;;;;;10.78;95.63;99380.78;4180857;28;19956;-72
2023/05/19 07:26:09;;;;;;;7.07;4.43;;;;;;;10.85;96.36;99386.50;4182219;28;20028;-72
2023/05/19 07:28:10;;;;;;;7.68;4.50;;;;;;;10.90;97.71;99386.22;4181946;28;20428;-73
2023/05/19 07:30:11;;;;;;;5.40;4.20;;;;;;;11.00;97.98;99382.88;4180994;28;20056;-72
2023/05/19 07:32:11;;;;;;;6.70;4.30;;;;;;;11.07;97.35;99376.72;4183493;28;20037;-72
2023/05/19 07:34:12;;;;;;;10.68;4.93;;;;;;;11.11;96.84;99372.91;4183181;28;20109;-72
2023/05/19 07:36:12;;;;;;;7.65;4.55;;;;;;;11.05;94.60;99377.09;4181268;28;20033;-72
2023/05/19 07:38:12;;;;;;;5.50;4.03;;;;;;;11.08;94.37;99373.59;4181153;28;20039;-73
2023/05/19 07:40:13;;;;;;;6.70;4.50;;;;;;;11.04;96.20;99374.69;4181268;28;20460;-72
2023/05/19 07:42:13;;;;;;;7.13;4.55;;;;;;;11.00;93.84;99373.78;4181134;28;20634;-72
2023/05/19 07:44:13;;;;;;;7.15;4.55;;;;;;;10.98;95.99;99368.59;4182819;28;20097;-72
2023/05/19 07:46:14;;;;;;;7.85;4.22;;;;;;;11.05;98.29;99366.00;4184336;28;20375;-72
2023/05/19 07:48:17;;;;;;;6.70;4.85;;;;;;;11.03;94.92;99368.34;4183709;28;20039;-72
2023/05/19 07:50:17;;;;;;;8.43;4.78;;;;;;;11.15;97.06;99364.66;4180924;28;20441;-72
2023/05/19 07:52:17;;;;;;;6.38;4.53;;;;;;;11.23;94.38;99375.53;4180817;28;20071;-72
2023/05/19 07:54:18;;;;;;;5.20;4.30;;;;;;;11.31;92.45;99368.19;4180572;28;20055;-72
2023/05/19 07:56:20;;;;;;;6.47;4.43;;;;;;;11.35;93.29;99366.31;4181733;28;20111;-72
2023/05/19 07:58:20;;;;;;;6.22;4.57;;;;;;;11.45;96.20;99371.28;4179646;28;20039;-72
2023/05/19 08:00:21;;;;;;;6.38;4.40;;;;;;;11.57;93.05;99366.78;4179540;28;20045;-72
2023/05/19 08:02:21;;;;;;;6.50;4.60;;;;;;;11.72;92.00;99363.94;4181599;28;20051;-72
2023/05/19 08:04:22;;;;;;;6.70;4.40;;;;;;;11.75;91.34;99348.53;4179941;28;20040;-72
2023/05/19 08:06:24;;;;;;;5.85;4.00;;;;;;;11.86;92.23;99351.59;4180829;28;20051;-72
2023/05/19 08:08:24;;;;;;;5.30;4.03;;;;;;;12.03;93.00;99353.91;4186115;28;20370;-73
2023/05/19 08:10:24;;;;;;;7.55;4.25;;;;;;;12.16;90.36;99354.53;4181549;28;20056;-72
2023/05/19 08:12:25;;;;;;;5.82;3.95;;;;;;;12.26;91.86;99363.09;4179472;28;20133;-72
2023/05/19 08:14:26;;;;;;;8.02;4.65;;;;;;;12.19;89.78;99362.94;4181672;28;20040;-72
2023/05/19 08:16:26;;;;;;;7.68;4.80;;;;;;;12.30;91.05;99365.91;4180520;28;20609;-72
2023/05/19 08:18:27;;;;;;;9.00;4.47;;;;;;;12.36;91.49;99368.03;4178085;28;20049;-72
2023/05/19 08:20:27;;;;;;;6.65;4.47;;;;;;;12.38;90.07;99354.56;4185106;28;20332;-72
2023/05/19 08:22:27;;;;;;;5.65;4.72;;;;;;;12.33;89.69;99351.31;4180607;28;20040;-72
2023/05/19 08:24:32;;;;;;;8.27;5.35;;;;;;;12.40;93.42;99351.41;4183220;28;20063;-72
2023/05/19 08:26:33;;;;;;;10.15;4.25;;;;;;;12.56;90.41;99349.31;4179851;28;20045;-72
2023/05/19 08:28:33;;;;;;;9.57;4.55;;;;;;;12.64;93.97;99348.28;4181944;28;20201;-72
2023/05/19 08:30:33;;;;;;;7.38;4.97;;;;;;;12.71;91.82;99344.81;4180815;28;20049;-72
2023/05/19 08:32:34;;;;;;;6.18;4.65;;;;;;;12.81;93.19;99337.84;4185222;28;20495;-72
2023/05/19 08:34:34;;;;;;;7.45;4.40;;;;;;;12.96;94.93;99342.47;4186200;28;20128;-72
2023/05/19 08:36:35;;;;;;;7.93;4.22;;;;;;;13.11;92.84;99333.16;4179949;28;20366;-72
2023/05/19 08:38:35;;;;;;;7.05;4.53;;;;;;;13.20;91.18;99336.50;4179634;28;20057;-72
2023/05/19 08:40:40;;;;;;;7.38;4.38;;;;;;;13.22;89.11;99336.13;4180529;28;20033;-72
2023/05/19 08:42:40;;;;;;;8.75;4.85;;;;;;;13.09;88.03;99329.16;4178153;28;20076;-72
2023/05/19 08:44:42;;;;;;;5.55;4.60;;;;;;;13.05;90.30;99322.75;4184987;28;20067;-72
2023/05/19 08:46:43;;;;;;;10.50;4.60;;;;;;;13.16;91.94;99323.72;4183537;28;20131;-72
2023/05/19 08:48:44;;;;;;;6.88;4.57;;;;;;;13.20;92.69;99319.03;4182728;28;20536;-72
2023/05/19 08:51:03;;;;;;;11.80;5.10;;;;;;;13.22;89.32;99319.44;4184438;28;20055;-72
2023/05/19 08:53:09;;;;;;;9.15;6.13;;;;;;;13.34;92.53;99312.88;4180942;28;20068;-72
2023/05/19 08:55:26;;;;;;;10.05;4.93;;;;;;;13.42;91.21;99323.72;4183242;28;20053;-72
2023/05/19 08:57:27;;;;;;;8.30;4.85;;;;;;;13.50;90.03;99319.06;4178000;28;20481;-72
2023/05/19 08:59:28;;;;;;;7.22;5.38;;;;;;;13.60;88.67;99310.06;4183286;28;20037;-72
2023/05/19 09:01:29;;;;;;;6.28;4.43;;;;;;;13.71;88.95;99310.16;4176931;28;20045;-72
2023/05/19 09:03:36;;;;;;;7.22;4.95;;;;;;;13.81;90.32;99305.91;4182251;28;20115;-72
2023/05/19 09:05:37;;;;;;;8.43;4.88;;;;;;;13.94;91.65;99312.84;4180563;28;20377;-72
2023/05/19 09:07:41;;;;;;;5.95;4.05;;;;;;;14.13;87.80;99303.50;4183527;28;20041;-72
2023/05/19 09:09:42;;;;;;;10.18;4.15;;;;;;;14.29;88.33;99309.63;4184860;28;20136;-72
2023/05/19 09:11:45;;;;;;;8.13;4.30;;;;;;;14.37;85.56;99296.56;4179129;28;20494;-72
2023/05/19 09:13:47;;;;;;;4.28;3.75;;;;;;;14.52;86.03;99307.47;4182373;28;20049;-72
2023/05/19 09:15:49;;;;;;;5.35;3.92;;;;;;;14.38;83.61;99292.59;4175923;28;20381;-72
2023/05/19 09:17:49;;;;;;;5.70;3.53;;;;;;;14.30;83.96;99286.97;4186045;28;20821;-72
2023/05/19 09:19:50;;;;;;;4.15;3.13;;;;;;;14.23;84.72;99294.44;4182172;28;20045;-72
2023/05/19 09:22:02;;;;;;;6.35;3.40;;;;;;;14.22;84.46;99285.28;4184106;28;20041;-72
2023/05/19 09:24:06;;;;;;;4.63;3.08;;;;;;;14.05;85.77;99288.69;4184585;28;20397;-72
2023/05/19 09:26:07;;;;;;;3.28;2.60;;;;;;;13.94;81.39;99291.38;4180236;28;20368;-72
2023/05/19 09:28:07;;;;;;;3.67;2.63;;;;;;;13.75;83.46;99289.59;4184149;28;20064;-72
2023/05/19 09:30:09;;;;;;;13.35;3.50;;;;;;;13.76;83.96;99285.63;4182139;28;20021;-72
2023/05/19 09:32:09;;;;;;;5.13;2.95;;;;;;;13.81;81.19;99290.03;4182275;28;20028;-72